Metar Cercanos

 

LEPA - Palma De Mallorc, Spain
Distance from station: ONO 38km
Actualización: Sun, 24-Jan-2021 4:00pm CET
Few Clouds
Few Clouds
 Viento del NNO
Viento: NNO 30 km/h, Racha: 50 km/h
Temperatura: 16°C
Rocío: 5°C
Humedad: 48%
Barómetro: 1011 hPa
Clouds: Few Clouds
Visibility: 10 km
Cloud details: Few Clouds 1067 m
2021/01/24 15:00 LEPA 241500Z 33016G27KT 300V360 9999 FEW035 16/05 Q1011 NOSIG
LEMH - Mahon/Menorca Is, Spain
Distance from station: ENE 105km
Actualización: Sun, 24-Jan-2021 4:00pm CET
Parcialmente nuboso
Parcialmente nuboso
 Viento del N
Viento: N 17 km/h
Temperatura: 12°C
Rocío: 6°C
Humedad: 67%
Barómetro: 1010 hPa
Clouds: Parcialmente nuboso
Visibility: 10 km
Cloud details: Parcialmente nuboso 1067 m
2021/01/24 15:00 LEMH 241500Z 01009KT 9999 SCT035 12/06 Q1010
 
LEIB - Ibiza/Es Codola, Spain
Distance from station: OSO 165km
Actualización: Sun, 24-Jan-2021 4:00pm CET
Few Clouds
Few Clouds
 Viento del OSO
Viento: OSO 15 km/h
Temperatura: 17°C
Rocío: 5°C
Humedad: 45%
Barómetro: 1012 hPa
Clouds: Few Clouds
Visibility: 10 km
Cloud details: Few Clouds 610 m
2021/01/24 15:00 LEIB 241500Z 24008KT 9999 FEW020 17/05 Q1012 NOSIG
LEBL - Barcelona Airpor, Spain
Distance from station: NNO 225km
Actualización: Sun, 24-Jan-2021 4:00pm CET
Few Clouds
Few Clouds
 Viento del O
Viento: O 9 km/h
Temperatura: 16°C
Rocío: 2°C
Humedad: 39%
Barómetro: 1008 hPa
Clouds: Few Clouds
Visibility: 10 km
Cloud details: Few Clouds 1067 m
2021/01/24 15:00 LEBL 241500Z 26005KT 220V310 9999 FEW035 16/02 Q1008 NOSIG
 
LEVC - Valencia (civ/Mi, Spain
Distance from station: NO 188km
Actualización: Sun, 24-Jan-2021 4:00pm CET
Few Clouds
Few Clouds
 Viento del O
Viento: O 26 km/h
Temperatura: 20°C
Rocío: 1°C
Humedad: 28%
Barómetro: 1011 hPa
Clouds: Few Clouds
Visibility: 10 km
Cloud details: Few Clouds 1067 m
2021/01/24 15:00 LEVC 241500Z 27014KT 240V300 9999 FEW035 20/01 Q1011 NOSIG
LEGE - Gerona/Costa Bra, Spain
Distance from station: N 276km
Actualización: Sun, 24-Jan-2021 4:00pm CET
Few Clouds
Few Clouds
 Viento del S
Viento: S 22 km/h
Temperatura: 12°C
Rocío: 6°C
Humedad: 67%
Barómetro: 1007 hPa
Clouds: Few Clouds
Visibility: 10 km
Cloud details: Few Clouds 1676 m
2021/01/24 15:00 LEGE 241500Z 17012KT 130V200 9999 FEW055 12/06 Q1007
 
LEAL - Alicante/El Alte, Spain
Distance from station: OSO 344km
Actualización: Sun, 24-Jan-2021 4:00pm CET
Despejado
Despejado
 Viento del NO
Viento: NO 28 km/h
Temperatura: 20°C
Rocío: 4°C
Humedad: 35%
Barómetro: 1012 hPa
Resumen: Despejado
Visibility: greater than 10 km
2021/01/24 15:00 LEAL 241500Z 31015KT 250V340 CAVOK 20/04 Q1012 NOSIG
LEAM - Almeria Airport, Spain
Distance from station: SSO 56km
Actualización: Sun, 24-Jan-2021 4:00pm CET
Despejado
Despejado
 Viento del OSO
Viento: OSO 22 km/h
Temperatura: 17°C
Rocío: 14°C
Humedad: 83%
Barómetro: 1012 hPa
Resumen: Despejado
Visibility: greater than 10 km
2021/01/24 15:00 LEAM 241500Z 24012KT CAVOK 17/14 Q1012
 
LEZG - Zaragoza (mil/Ci, Spain
Distance from station: NO 431km
Actualización: Sun, 24-Jan-2021 4:00pm CET
Few Clouds
Few Clouds
 Viento del NO
Viento: NO 15 km/h
Temperatura: 13°C
Rocío: 6°C
Humedad: 63%
Barómetro: 1011 hPa
Clouds: Few Clouds
Visibility: 10 km
Cloud details: Few Clouds 2134 m
2021/01/24 15:00 LEZG 241500Z 31008KT 9999 FEW070 13/06 Q1011
LEMD - Madrid/Barajas, Spain
Distance from station: ONO 234km
Actualización: Sun, 24-Jan-2021 4:00pm CET
Few Clouds
Few Clouds
 Viento del OSO
Viento: OSO 19 km/h
Temperatura: 13°C
Rocío: 3°C
Humedad: 51%
Barómetro: 1013 hPa
Clouds: Few Clouds
Visibility: 10 km
Cloud details: Few Clouds 1463 m
2021/01/24 15:00 LEMD 241500Z 24010KT 210V270 9999 FEW048 13/03 Q1013 NOSIG
 
LEGR - Granada Airport, Spain
Distance from station: OSO 62km
Actualización: Sun, 24-Jan-2021 4:00pm CET
Few Clouds
Few Clouds
 Viento del O
Viento: O 17 km/h
Temperatura: 15°C
Rocío: 9°C
Humedad: 68%
Barómetro: 1017 hPa
Clouds: Few Clouds
Visibility: 10 km
Cloud details: Few Clouds 1219 m
2021/01/24 15:00 LEGR 241500Z 27009KT 240V310 9999 FEW040 15/09 Q1017
LEMG - Malaga (civ/Mil), Spain
Distance from station: OSO 227km
Actualización: Sun, 24-Jan-2021 4:00pm CET
Muy nuboso
Muy nuboso
 Viento del NO
Viento: NO 20 km/h
Temperatura: 19°C
Rocío: 10°C
Humedad: 56%
Barómetro: 1016 hPa
Clouds: Muy nuboso
Visibility: 10 km
Cloud details: Few Clouds 305 m
Muy nuboso 1829 m
2021/01/24 15:00 LEMG 241500Z 32011KT 290V350 9999 FEW010 BKN060 19/10 Q1016 NOSIG
 
LEZL - Sevilla (civ/Mil, Spain
Distance from station: S 318km
Actualización: Sun, 24-Jan-2021 4:00pm CET
Few Clouds
Few Clouds
 Viento del O
Viento: O 15 km/h
Temperatura: 18°C
Rocío: 10°C
Humedad: 60%
Barómetro: 1018 hPa
Clouds: Few Clouds
Visibility: 10 km
Cloud details: Few Clouds 1067 m
2021/01/24 15:00 LEZL 241500Z 27008KT 240V310 9999 FEW035 18/10 Q1018 NOSIG
LEVT - Vitoria, Spain
Distance from station: NO 226km
Actualización: Sun, 24-Jan-2021 4:00pm CET
Few Clouds
Few Clouds
 Viento del OSO
Viento: OSO 22 km/h
Temperatura: 11°C
Rocío: 3°C
Humedad: 58%
Barómetro: 1010 hPa
Clouds: Few Clouds
Visibility: 10 km
Cloud details: Few Clouds 1067 m
2021/01/24 15:00 LEVT 241500Z 25012KT 210V290 9999 FEW035 11/03 Q1010
 
LEBB - Bilbao/Sondica, Spain
Distance from station: NNO 235km
Actualización: Sun, 24-Jan-2021 4:00pm CET
Parcialmente nuboso
Parcialmente nuboso
 Viento del O
Viento: O 7 km/h
Temperatura: 14°C
Rocío: 7°C
Humedad: 63%
Barómetro: 1010 hPa
Clouds: Parcialmente nuboso
Visibility: 10 km
Cloud details: Parcialmente nuboso 2134 m
2021/01/24 15:00 LEBB 241500Z 28004KT 230V330 9999 SCT070 14/07 Q1010 NOSIG
LESO - San Sebastian/Fu, Spain
Distance from station: N 231km
Actualización: Sun, 24-Jan-2021 4:00pm CET
Few Clouds
Few Clouds
 Viento del OSO
Viento: OSO 13 km/h
Temperatura: 12°C
Rocío: 7°C
Humedad: 72%
Barómetro: 1011 hPa
Clouds: Few Clouds
Visibility: 10 km
Cloud details: Few Clouds 1524 m
2021/01/24 15:00 LESO 241500Z 24007KT 200V280 9999 FEW050 12/07 Q1011
 
LEVD - Valladolid(Mil/C, Spain
Distance from station: ONO 239km
Actualización: Sun, 24-Jan-2021 4:00pm CET
Muy nuboso
Muy nuboso
 Viento del O
Viento: O 35 km/h
Temperatura: 9°C
Sensación frio: 5°C
Rocío: 3°C
Humedad: 66%
Barómetro: 1013 hPa
Clouds: Muy nuboso
Visibility: 10 km
Cloud details: Parcialmente nuboso 792 m
Muy nuboso 1006 m
2021/01/24 15:00 LEVD 241500Z 26019KT 9999 SCT026 BKN033 09/03 Q1013
LESA - Salamanca (civ/M, Spain
Distance from station: ONO 349km
Actualización: Sun, 24-Jan-2021 4:00pm CET
Muy nuboso
Muy nuboso
 Viento del O
Viento: O 28 km/h
Temperatura: 10°C
Sensación frio: 7°C
Rocío: 3°C
Humedad: 62%
Barómetro: 1015 hPa
Clouds: Muy nuboso
Visibility: 10 km
Cloud details: Parcialmente nuboso 884 m
Muy nuboso 1128 m
2021/01/24 15:00 LESA 241500Z 26015KT 9999 SCT029 BKN037 10/03 Q1015
 
LEXJ - Santander/Paraya, Spain
Distance from station: NNO 247km
Actualización: Sun, 24-Jan-2021 4:00pm CET
Lluvia débil, Muy nuboso
Lluvia débil, Muy nuboso
 Viento del O
Viento: O 13 km/h
Temperatura: 13°C
Rocío: 7°C
Humedad: 67%
Barómetro: 1010 hPa
Resumen: Lluvia débil
Clouds: Muy nuboso
Visibility: 10 km
Cloud details: Parcialmente nuboso 1189 m
Muy nuboso 1829 m
2021/01/24 15:00 LEXJ 241500Z 26007KT 210V290 9999 -RA SCT039 BKN060 13/07 Q1010
LEAS - Asturias/Aviles, Spain
Distance from station: NO 214km
Actualización: Sun, 24-Jan-2021 4:00pm CET
Parcialmente nuboso
Parcialmente nuboso
 Viento del O
Viento: O 24 km/h
Temperatura: 12°C
Rocío: 7°C
Humedad: 72%
Barómetro: 1010 hPa
Clouds: Parcialmente nuboso
Visibility: 10 km
Cloud details: Few Clouds 1128 m
Parcialmente nuboso 1676 m
2021/01/24 15:00 LEAS 241500Z 28013KT 260V320 9999 FEW037 SCT055 12/07 Q1010 NOSIG
 
LECO - La Coruna/Alvedr, Spain
Distance from station: ONO 222km
Actualización: Sun, 24-Jan-2021 4:00pm CET
Muy nuboso
Muy nuboso
 Viento del O
Viento: O 11 km/h
Temperatura: 13°C
Rocío: 8°C
Humedad: 72%
Barómetro: 1012 hPa
Clouds: Muy nuboso
Visibility: 10 km
Cloud details: Few Clouds 914 m
Muy nuboso 1219 m
2021/01/24 15:00 LECO 241500Z 26006KT 220V290 9999 FEW030 BKN040 13/08 Q1012 NOSIG
LEVX - Vigo/Peinador, Spain
Distance from station: O 214km
Actualización: Sun, 24-Jan-2021 4:00pm CET
Muy nuboso
Muy nuboso
 Viento del SO
Viento: SO 15 km/h
Temperatura: 12°C
Rocío: 9°C
Humedad: 82%
Barómetro: 1015 hPa
Clouds: Muy nuboso
Visibility: 10 km
Cloud details: Few Clouds 366 m
Parcialmente nuboso 640 m
Muy nuboso 1280 m
2021/01/24 15:00 LEVX 241500Z 23008KT 190V260 9999 FEW012 SCT021 BKN042 12/09 Q1015 TEMPO 3000 -RA BR BKN005